Date,TemperatureHighF,TemperatureAvgF,TemperatureLowF,DewpointHighF,DewpointAvgF,DewpointLowF,HumidityHigh,HumidityAvg,HumidityLow,PressureMaxIn,PressureMinIn,WindSpeedMaxMPH,WindSpeedAvgMPH,GustSpeedMaxMPH,PrecipitationSumIn
2013-1-1,76.5,57.4,42.3,59.0,51.6,42.0,99,84,51,30.16,29.94,10,2,10,0.00
2013-1-2,76.1,62.8,51.1,67.1,60.2,50.8,99,92,72,30.00,29.89,9,1,9,0.01
2013-1-3,62.1,56.5,48.4,61.8,56.0,48.1,99,98,91,30.18,29.98,6,2,6,0.13
2013-1-4,58.3,49.7,44.2,52.2,48.2,43.6,99,95,80,30.26,30.16,6,2,6,0.00
2013-1-5,67.1,51.1,36.5,52.8,45.9,36.2,99,84,57,30.28,30.18,6,1,6,0.04
2013-1-6,62.8,55.9,52.7,55.6,53.4,50.5,99,92,77,30.19,30.05,6,2,6,1.30
2013-1-7,64.0,53.1,44.4,53.6,49.1,42.5,99,87,68,30.23,30.11,11,3,11,0.00
2013-1-8,74.8,62.1,52.9,66.1,58.9,51.1,99,90,73,30.21,30.12,9,2,9,0.00
2013-1-9,79.5,67.8,58.5,71.0,65.2,58.2,99,92,75,30.26,30.16,7,2,7,0.00
2013-1-11,66.0,66.0,66.0,65.7,65.7,65.7,99,99,99,30.26,30.26,2,2,2,0.00
2013-1-12,71.2,65.5,59.5,65.7,63.8,58.9,99,95,72,30.26,30.02,4,2,4,0.00
2013-1-13,80.6,65.7,55.6,67.5,60.2,55.3,99,85,50,30.11,29.99,7,1,7,0.00
2013-1-14,82.8,66.1,54.7,66.7,60.1,54.4,99,84,48,30.12,30.03,7,1,7,0.00
2013-1-15,68.0,60.1,55.4,64.8,59.4,55.1,99,98,89,30.08,29.98,4,0,4,0.00
2013-1-16,82.8,67.5,56.5,67.8,61.5,56.2,99,84,50,30.10,29.91,8,2,8,0.00
2013-1-17,72.3,56.8,42.4,65.6,51.9,33.7,99,85,57,30.08,29.87,16,4,16,0.00
2013-1-18,60.8,48.6,40.1,45.0,39.6,32.8,83,72,55,30.33,30.08,14,5,14,0.00
2013-1-19,67.5,54.7,44.6,55.4,48.9,39.5,99,81,63,30.31,30.13,10,3,10,0.00
2013-1-20,75.4,59.2,46.9,54.5,51.0,46.6,99,79,40,30.15,30.00,7,2,7,0.00
2013-1-21,70.2,54.1,44.4,52.0,47.1,44.1,99,81,45,30.07,29.95,9,1,9,0.00
2013-1-22,63.7,47.9,34.7,44.7,35.3,26.4,99,68,28,30.24,30.02,9,2,9,0.00
2013-1-23,65.5,43.7,27.5,41.1,32.7,26.4,99,72,31,30.36,30.22,8,1,8,0.00
2013-1-24,73.2,53.3,36.9,51.7,44.7,36.5,99,77,41,30.25,30.12,13,3,13,0.00
2013-1-25,74.8,57.6,47.8,55.8,49.6,46.3,99,79,38,30.26,30.09,8,2,8,0.00
2013-1-26,76.5,59.6,45.3,60.5,54.2,45.0,99,84,55,30.17,30.08,11,2,11,0.00
2013-1-27,72.1,60.4,51.8,58.4,55.1,51.5,99,84,60,30.30,30.14,12,3,12,0.00
2013-1-28,80.1,65.0,52.3,62.1,58.9,52.0,99,83,53,30.30,30.17,7,2,7,0.00
2013-1-29,82.4,66.6,53.4,67.2,61.8,53.1,99,86,52,30.20,30.02,7,2,7,0.00
2013-1-30,85.6,72.8,58.8,67.1,63.7,57.1,99,76,49,30.03,29.71,14,5,14,0.18
2013-1-31,61.3,49.7,33.4,57.1,36.8,25.4,98,66,27,30.19,29.82,15,5,15,0.06
2013-2-1,65.3,44.9,27.3,35.8,31.9,27.1,99,69,27,30.26,30.18,10,2,10,0.00
2013-2-2,68.9,45.7,28.6,36.4,29.0,20.7,96,57,21,30.28,30.09,6,2,6,0.00
2013-2-3,68.9,46.5,30.7,42.9,32.0,23.7,99,66,19,30.13,29.97,11,2,11,0.00
2013-2-4,67.3,49.6,32.2,42.8,37.1,32.0,99,68,30,30.06,29.97,7,1,7,0.00
2013-2-5,71.8,54.1,37.4,55.3,45.4,36.6,99,76,43,30.04,29.93,9,1,9,0.00
2013-2-6,72.0,60.5,54.3,60.6,56.6,52.8,99,88,64,30.08,29.97,5,1,5,0.02
2013-2-7,79.2,64.8,55.8,66.4,61.8,55.5,99,91,57,30.03,29.72,9,2,9,0.09
2013-2-8,72.0,60.8,48.4,66.2,55.6,48.1,99,84,58,30.02,29.76,12,5,12,0.00
2013-2-9,69.3,52.8,42.1,51.9,45.3,40.3,99,79,42,30.19,30.01,9,2,9,0.00
2013-2-10,77.0,58.8,39.6,58.3,50.9,39.2,99,78,48,30.23,30.09,10,3,10,0.00
2013-2-11,83.5,68.3,56.8,63.4,60.3,56.1,99,78,50,30.12,29.98,10,2,10,0.00
2013-2-12,83.5,69.9,58.1,68.1,64.1,10.0,99,84,53,30.00,29.79,9,3,9,0.00
2013-2-13,75.9,69.9,59.7,72.6,65.8,49.7,99,87,57,29.85,29.72,12,4,12,0.64
2013-2-14,60.6,52.1,37.1,55.9,50.1,33.0,99,93,78,30.01,29.84,9,2,9,0.13
2013-2-15,68.2,49.6,36.1,46.7,42.0,35.8,99,80,35,30.05,29.90,6,1,6,0.00
2013-2-16,59.0,45.9,38.1,46.1,39.7,22.1,99,81,48,30.07,29.86,15,3,15,0.02
2013-2-17,55.2,37.2,24.6,25.5,18.9,7.9,93,56,16,30.30,30.07,12,3,12,0.00
2013-2-18,64.8,42.4,20.7,42.1,30.8,19.8,99,71,30,30.35,30.16,7,2,7,0.00
2013-2-19,79.9,58.0,35.6,71.4,49.2,35.3,99,77,39,30.17,29.94,14,3,14,0.06
2013-2-20,70.5,55.1,41.5,58.9,40.7,27.0,99,64,27,30.12,29.99,8,2,8,0.00
2013-2-21,75.4,55.3,36.0,54.5,45.1,35.5,99,73,37,30.10,29.95,6,1,6,0.00
2013-2-22,86.2,68.4,54.1,68.7,61.4,51.5,99,81,44,30.00,29.90,8,2,8,0.04
2013-2-23,84.2,71.0,61.2,69.2,65.3,60.9,99,84,53,29.91,29.76,14,3,14,0.50
2013-2-24,78.3,64.8,54.3,64.3,59.4,46.6,99,85,43,29.92,29.78,6,2,6,0.13
2013-2-25,66.2,61.4,54.7,65.9,60.8,53.0,99,98,91,29.86,29.72,13,3,13,1.23
2013-2-26,79.7,68.2,59.4,68.8,61.8,52.3,99,83,39,29.75,29.58,13,5,13,0.54
2013-2-27,72.1,58.9,50.0,55.2,47.4,40.8,96,69,35,29.91,29.75,14,3,14,0.00
2013-2-28,71.6,56.3,41.2,47.9,42.0,33.8,99,64,32,29.91,29.77,20,4,20,0.01
2013-3-1,64.0,52.4,45.0,38.6,36.0,33.3,74,54,37,29.94,29.82,10,4,10,0.00
2013-3-2,57.9,44.0,31.1,37.2,31.2,26.4,99,65,34,29.97,29.85,20,5,20,0.00
2013-3-3,49.5,36.4,26.4,33.5,27.3,24.3,99,73,41,30.07,29.93,15,3,15,0.00
2013-3-4,69.4,43.9,24.6,39.0,29.0,20.0,99,65,24,30.16,30.04,9,2,9,0.00
2013-3-5,77.2,56.8,34.2,58.6,44.3,33.5,99,69,29,30.11,29.82,14,3,14,0.00
2013-3-6,65.1,52.0,35.6,61.7,34.5,24.9,95,55,25,30.07,29.80,20,8,20,0.08
2013-3-7,70.5,46.2,31.1,38.2,34.1,30.4,99,69,28,30.17,30.06,8,2,8,0.01
2013-3-8,75.6,50.5,30.9,49.2,38.5,30.7,99,72,21,30.17,30.06,10,2,10,0.00
2013-3-9,72.9,52.2,32.7,49.0,43.0,32.5,99,75,36,30.21,30.11,12,2,12,0.00
2013-3-10,77.7,60.2,42.8,56.7,50.6,42.5,99,75,42,30.15,30.04,9,2,9,0.00
2013-3-11,77.9,63.3,48.0,59.4,54.3,47.7,99,76,47,30.06,29.81,9,2,9,0.00
2013-3-12,70.2,63.3,45.9,67.5,58.6,45.4,99,85,51,29.95,29.74,12,3,12,0.12
2013-3-13,73.6,56.4,43.9,46.3,36.7,28.4,99,55,20,30.12,29.94,13,4,13,0.00
2013-3-14,65.8,47.9,32.5,36.3,30.7,25.4,92,56,25,30.24,30.10,9,2,9,0.00
2013-3-15,77.0,51.4,29.3,41.5,34.1,23.8,99,61,23,30.22,30.04,9,2,9,0.00
2013-3-16,82.4,59.9,39.0,53.2,44.8,37.8,99,63,29,30.09,29.92,14,3,14,0.00
2013-3-17,77.4,57.2,42.1,55.6,46.4,41.8,99,72,33,30.04,29.91,6,1,6,0.00
2013-3-18,81.9,67.3,57.9,63.9,60.2,55.1,99,80,51,29.98,29.78,10,2,10,0.02
2013-3-19,84.0,68.4,56.7,64.1,59.1,55.6,99,76,41,29.94,29.81,17,3,17,0.05
2013-3-20,71.8,59.3,47.5,58.1,53.3,47.2,99,82,52,29.93,29.77,11,2,11,0.06
2013-3-21,69.6,50.5,34.5,47.2,34.4,23.0,99,64,19,29.90,29.79,13,2,13,0.17
2013-3-22,73.6,54.0,37.8,46.9,38.1,31.1,89,59,26,30.00,29.86,7,2,7,0.00
2013-3-23,66.6,57.6,46.8,64.1,56.6,45.3,99,97,85,29.93,29.71,12,2,12,4.32
2013-3-24,86.2,70.9,58.8,73.5,66.0,58.5,99,87,47,29.74,29.45,14,5,14,0.49
2013-3-25,68.4,58.5,46.9,62.1,35.9,21.6,91,47,19,29.96,29.55,18,7,18,0.00
2013-3-26,59.9,46.3,33.3,32.4,27.0,22.9,87,50,27,30.18,29.96,18,5,18,0.00
2013-3-27,65.1,44.2,28.4,35.3,30.7,25.8,99,67,26,30.34,30.14,11,2,11,0.00
2013-3-28,72.1,49.2,30.2,39.6,32.1,26.5,99,62,20,30.24,30.13,13,2,13,0.00
2013-3-29,78.4,54.4,34.2,44.9,36.5,31.5,99,62,20,30.27,30.12,13,2,13,0.00
2013-3-30,82.4,58.9,38.1,50.3,41.8,37.3,99,62,23,30.19,30.02,10,2,10,0.00
2013-3-31,83.7,64.8,46.8,55.4,49.6,42.0,96,62,37,30.06,29.89,10,2,10,0.00
2013-4-1,80.6,69.8,61.0,71.0,57.5,49.5,98,66,53,29.92,29.80,14,2,14,0.17
2013-4-2,83.1,64.8,48.9,60.5,50.0,42.9,99,67,26,30.04,29.90,10,2,10,0.00
2013-4-3,82.4,62.9,47.5,66.1,56.9,47.2,99,84,46,30.03,29.93,9,2,9,0.57
2013-4-4,77.7,69.5,63.3,70.9,65.7,63.0,99,89,68,29.98,29.78,11,3,11,0.15
2013-4-5,64.8,59.7,50.7,64.5,58.5,50.2,99,96,85,29.96,29.72,7,2,7,0.24
2013-4-6,75.6,58.9,44.8,56.9,51.4,44.5,99,79,45,30.10,29.95,13,3,13,0.00
2013-4-7,82.8,64.0,51.8,64.3,55.7,51.5,99,78,42,30.12,30.02,7,1,7,0.00
2013-4-8,87.6,67.1,48.6,64.9,56.6,48.3,99,75,35,30.09,29.99,7,2,7,0.00
2013-4-9,88.0,69.9,54.9,68.0,60.4,54.6,99,76,41,30.12,30.01,8,2,8,0.00
2013-4-10,87.1,68.8,51.6,66.9,61.3,51.3,99,80,50,30.08,29.92,6,1,6,0.00
2013-4-11,92.1,75.5,64.8,74.0,69.5,64.5,99,85,43,29.92,29.73,11,2,11,0.64
2013-4-12,88.7,76.4,70.9,74.1,69.8,65.4,99,82,51,29.80,29.67,15,4,15,0.01
2013-4-13,92.1,72.1,57.9,67.6,53.9,45.2,94,57,21,29.94,29.80,7,2,7,0.00
2013-4-14,74.7,63.6,56.1,67.2,61.2,54.2,99,93,60,29.93,29.78,7,2,7,0.97
2013-4-15,89.4,71.3,58.6,68.3,63.7,58.3,99,80,46,30.04,29.73,8,2,8,0.00
2013-4-16,87.6,72.7,62.8,70.8,66.0,62.5,99,82,49,30.11,30.01,10,2,10,0.00
2013-4-17,85.1,69.7,56.8,70.2,64.1,56.5,99,84,57,30.11,30.02,8,2,8,0.00
2013-4-18,91.6,74.6,61.5,71.5,65.4,61.2,99,77,45,30.12,29.89,8,2,8,0.00
2013-4-19,90.5,77.3,64.9,73.7,70.2,62.6,99,81,50,29.93,29.79,12,3,12,0.23
2013-4-20,64.4,55.4,48.7,62.6,53.4,48.3,99,93,68,30.12,29.91,8,2,8,0.81
2013-4-21,72.5,60.9,47.8,63.2,57.7,47.5,99,90,71,30.13,30.03,10,3,10,0.14
2013-4-22,64.8,61.6,52.9,63.2,59.5,52.6,99,93,77,30.08,29.98,11,4,11,0.19
2013-4-23,80.6,63.0,51.1,60.5,55.1,50.8,99,79,43,32.04,29.99,8,2,8,0.00
2013-4-24,92.1,67.2,46.8,65.3,56.1,46.5,99,73,34,30.09,30.00,8,1,8,0.00
2013-4-25,94.1,71.2,55.0,67.0,61.7,54.7,99,76,38,30.13,30.02,8,2,8,0.00
2013-4-26,86.7,70.6,58.3,68.2,62.2,52.6,99,77,48,30.21,30.09,11,3,11,0.00
2013-4-27,90.9,69.6,54.3,64.7,58.5,54.0,99,73,35,30.19,30.07,8,2,8,0.00
2013-4-28,86.2,70.9,58.6,70.3,62.9,57.4,99,78,48,30.09,29.91,7,2,7,0.01
2013-4-29,87.3,71.3,61.9,67.7,64.3,60.6,99,81,45,29.95,29.83,14,2,14,0.70
2013-4-30,91.4,71.6,61.5,68.9,64.8,61.2,99,82,43,29.97,29.85,8,1,8,0.09
2013-5-1,77.9,68.7,60.4,69.3,64.7,60.0,99,88,72,29.98,29.89,11,3,11,0.00
2013-5-2,76.6,67.9,66.0,70.1,67.0,42.0,99,97,89,29.96,29.82,12,3,12,1.51
2013-5-3,72.0,66.3,63.9,68.7,65.2,47.2,99,96,82,29.82,29.75,10,5,10,3.93
2013-5-4,71.1,67.6,64.6,69.5,66.5,61.2,99,97,81,29.75,29.62,8,3,8,1.11
2013-5-5,83.8,67.0,58.3,65.9,56.5,48.8,99,74,32,29.81,29.64,15,4,15,0.01
2013-5-6,61.0,61.0,61.0,55.1,55.1,55.1,81,81,81,29.80,29.80,0,0,0,0.00
2013-5-7,61.0,61.0,61.0,55.1,55.1,55.1,81,81,81,29.80,29.80,0,0,0,0.00
2013-5-8,61.0,61.0,61.0,55.1,55.1,55.1,81,81,81,29.80,29.80,0,0,0,0.00
2013-5-9,61.0,61.0,61.0,55.1,55.1,55.1,81,81,81,29.80,29.80,0,0,0,0.00
2013-5-10,61.0,61.0,61.0,55.1,55.1,55.1,81,81,81,29.80,29.80,0,0,0,0.00
2013-5-11,61.0,61.0,61.0,55.1,55.1,55.1,81,81,81,29.80,29.80,0,0,0,0.00
2013-5-12,61.0,61.0,61.0,55.1,55.1,55.1,81,81,81,29.80,29.80,0,0,0,0.00
2013-5-13,61.0,61.0,61.0,55.1,55.1,55.1,81,81,81,29.80,29.80,0,0,0,0.00
2013-5-14,61.0,61.0,61.0,55.1,55.1,55.1,81,81,81,29.80,29.80,0,0,0,0.00
2013-5-15,61.0,61.0,61.0,55.1,55.1,55.1,81,81,81,29.80,29.80,0,0,0,0.00
2013-5-16,61.0,61.0,61.0,55.1,55.1,55.1,81,81,81,29.80,29.80,0,0,0,0.00
2013-5-17,61.0,61.0,61.0,55.1,55.1,55.1,81,81,81,29.80,29.80,0,0,0,0.00
2013-5-18,61.0,61.0,61.0,55.1,55.1,55.1,81,81,81,29.80,29.80,0,0,0,0.00
2013-5-19,61.0,61.0,61.0,55.1,55.1,55.1,81,81,81,29.80,29.80,0,0,0,0.00
2013-5-20,70.7,61.7,61.0,68.4,56.1,55.1,97,82,81,29.99,29.80,0,0,0,0.00
2013-5-21,89.1,74.1,64.0,73.8,68.8,63.7,99,85,56,29.97,29.87,7,1,7,0.00
2013-5-22,90.5,74.3,64.0,77.6,69.3,63.7,99,86,54,29.91,29.83,6,1,6,0.27
2013-5-23,98.8,78.4,65.7,72.2,67.9,64.4,99,75,39,29.90,29.82,9,2,9,0.00
2013-5-24,98.2,77.6,63.5,70.8,62.9,53.7,99,67,26,30.03,29.86,17,2,17,0.00
2013-5-25,89.8,71.1,55.8,64.9,56.3,50.9,99,66,33,30.17,30.03,9,2,9,0.00
2013-5-26,92.5,70.7,52.5,63.6,56.0,45.6,99,67,28,30.16,30.08,6,1,6,0.00
2013-5-27,92.8,72.1,54.3,66.1,60.9,53.5,99,73,39,30.14,30.05,7,2,7,0.00
2013-5-28,92.7,74.4,58.3,69.4,65.1,58.0,99,76,46,30.10,30.04,7,2,7,0.03
2013-5-29,93.6,77.5,64.4,74.1,70.0,64.1,99,80,51,30.08,30.01,10,2,10,0.00
2013-5-30,90.0,78.5,68.7,76.5,71.5,68.4,99,81,54,30.09,30.01,10,2,10,0.05
2013-5-31,93.6,78.0,65.8,72.8,69.7,65.5,99,78,46,30.07,30.00,8,2,8,0.00
2013-6-1,94.1,78.4,66.6,73.5,70.6,66.3,99,79,50,30.02,29.94,9,2,9,0.21
2013-6-2,96.3,79.9,70.5,78.1,74.4,70.2,99,85,54,29.98,29.79,7,2,7,0.06
2013-6-3,95.7,78.2,70.0,79.7,73.6,69.7,99,87,52,29.89,29.79,15,2,15,0.21
2013-6-4,89.1,76.9,69.4,78.7,73.6,69.1,99,91,64,29.94,29.85,8,1,8,0.52
2013-6-5,86.7,75.2,70.9,74.9,72.4,70.6,99,92,66,29.94,29.85,6,1,6,0.30
2013-6-6,78.3,73.4,70.9,77.0,73.0,70.6,99,99,94,29.86,29.43,14,3,14,2.62
2013-6-7,96.4,79.2,69.4,77.6,72.2,62.0,99,81,47,29.84,29.49,16,4,16,0.17
2013-6-8,94.5,79.9,69.4,76.8,72.3,69.1,99,80,48,30.00,29.84,9,2,9,0.00
2013-6-9,93.2,78.7,70.7,77.6,73.7,70.4,99,86,58,30.04,29.96,6,1,6,0.24
2013-6-10,96.1,81.4,72.1,78.5,74.3,71.8,99,82,49,30.02,29.93,10,2,10,0.00
2013-6-11,95.4,86.7,74.1,78.0,74.3,71.8,93,68,53,29.98,29.92,7,2,7,0.12
2013-6-12,106.5,84.1,69.4,77.7,72.9,69.1,99,74,35,29.99,29.88,7,2,7,0.00
2013-6-13,98.6,83.8,73.9,79.1,75.5,72.6,99,79,46,29.92,29.78,10,2,10,0.00
2013-6-14,95.0,79.5,69.6,80.3,75.0,69.3,99,87,57,29.85,29.71,9,3,9,2.25
2013-6-15,91.6,78.1,69.6,74.8,70.1,66.6,99,79,47,30.01,29.86,9,2,9,0.01
2013-6-16,95.4,79.3,67.8,75.7,71.7,65.3,99,80,50,30.04,29.96,8,1,8,0.00
2013-6-17,104.7,83.8,74.3,79.3,74.9,71.0,99,78,38,30.01,29.87,6,2,6,0.09
2013-6-18,100.8,81.7,68.2,75.9,71.9,67.9,99,76,41,31.78,29.84,13,2,13,0.51
2013-6-19,106.7,82.7,70.5,78.8,73.5,69.6,99,77,33,29.95,29.84,10,2,10,0.48
2013-6-20,94.3,79.8,70.9,77.4,73.6,69.7,99,83,55,30.01,29.91,7,2,7,0.00
2013-6-29,88.3,81.8,75.4,76.6,74.5,72.8,93,79,67,29.73,29.66,5,2,9,0.03
2013-6-30,92.6,78.5,72.1,78.3,74.7,71.8,99,89,60,29.78,29.69,6,1,12,0.14
2013-7-1,85.2,75.4,71.8,77.1,73.5,70.7,99,94,75,29.93,29.74,6,1,12,0.92
2013-7-2,89.7,75.9,71.8,80.7,74.0,71.5,99,94,65,30.02,29.90,7,1,9,0.80
2013-7-3,90.9,77.8,71.1,79.2,75.1,70.8,99,92,64,30.05,29.98,5,1,7,0.34
2013-7-4,89.4,78.4,70.7,80.8,74.8,70.4,99,90,65,30.10,30.00,6,1,12,1.56
2013-7-5,93.0,80.0,69.6,79.7,73.6,69.3,99,83,56,30.08,30.02,6,1,14,0.03
2013-7-6,96.4,80.9,72.3,77.1,74.2,72.0,99,82,52,30.07,29.98,6,1,9,0.00
2013-7-7,96.9,81.7,71.4,77.0,73.7,71.1,99,79,51,30.07,30.00,3,1,7,0.00
2013-7-8,99.2,80.0,69.8,77.7,73.2,69.5,99,83,47,30.10,30.01,3,1,6,0.00
2013-7-9,102.0,82.5,69.9,77.5,72.5,69.7,99,76,39,30.10,30.00,3,1,6,0.00
2013-7-10,99.9,80.6,67.1,76.8,71.7,66.8,99,78,43,30.03,29.89,3,1,6,0.00
2013-7-11,99.2,80.8,70.9,75.9,73.3,70.6,99,81,43,29.95,29.80,5,1,7,0.00
2013-7-12,88.3,77.9,70.9,79.4,74.4,70.6,99,90,67,29.86,29.80,6,0,7,0.67
2013-7-13,87.8,74.1,69.3,78.4,72.8,69.0,99,96,69,29.92,29.81,6,0,9,3.11
2013-7-14,88.6,76.2,68.0,77.5,72.4,67.7,99,89,65,30.04,29.90,3,1,7,0.00
2013-7-15,84.3,76.1,69.3,79.7,74.5,69.0,99,95,82,30.09,30.01,3,0,7,0.53
2013-7-16,97.2,81.3,72.0,78.9,74.6,71.7,99,82,50,30.12,30.06,3,1,7,0.01
2013-7-17,98.1,81.4,71.6,78.3,73.1,70.4,99,79,43,30.13,30.02,5,1,6,0.00
2013-7-18,99.4,80.6,69.3,78.1,72.8,69.0,99,80,44,30.06,29.96,3,1,6,0.00
2013-7-19,94.1,77.4,71.1,77.1,73.4,70.8,99,89,52,30.04,29.97,6,1,8,1.42
2013-7-20,91.8,76.2,70.7,78.9,73.3,70.4,99,92,65,30.02,29.93,7,1,11,0.03
2013-7-21,91.7,77.2,71.2,78.3,74.5,70.9,99,92,63,30.02,29.94,3,1,5,0.34
2013-7-22,93.7,77.6,72.1,78.7,74.9,71.8,99,92,57,30.05,29.94,10,1,18,0.60
2013-7-23,91.1,77.8,72.1,79.1,74.7,71.8,99,91,65,29.95,29.83,7,2,10,0.01
2013-7-24,91.4,77.8,71.6,79.3,74.6,70.7,99,90,66,29.85,29.74,7,2,10,0.51
2013-7-25,93.0,79.6,71.2,78.0,74.3,70.9,99,85,60,29.88,29.75,5,1,8,0.00
2013-7-26,99.1,81.7,70.9,80.1,75.0,70.6,99,83,50,29.94,29.85,3,1,6,0.00
2013-7-27,102.5,82.7,73.0,81.1,75.2,70.2,99,81,40,29.93,29.79,5,1,7,0.00
2013-7-28,94.9,79.3,72.0,77.7,73.9,71.7,99,86,49,29.92,29.83,3,1,5,0.00
2013-7-30,75.7,75.3,74.8,75.4,75.0,74.5,99,99,99,30.06,30.06,0,0,0,0.41
2013-7-31,91.2,76.8,72.1,80.5,74.7,71.8,99,94,69,30.05,29.96,3,0,6,0.55
2013-8-1,95.0,77.8,71.2,77.9,73.9,70.9,99,89,53,30.07,29.87,5,1,7,0.00
2013-8-2,96.3,81.2,70.2,78.8,74.1,69.9,99,81,53,29.96,29.86,3,1,6,0.00
2013-8-3,95.1,79.3,71.8,79.8,75.1,71.5,99,88,58,29.98,29.90,6,1,9,0.04
2013-8-4,104.0,84.1,74.3,79.3,76.2,72.8,99,80,39,29.97,29.84,5,1,8,0.00
2013-8-5,105.3,85.4,76.5,79.3,77.0,73.1,99,79,37,29.92,29.80,5,1,12,0.00
2013-8-6,95.5,83.5,75.0,79.7,77.1,74.7,99,83,57,29.92,29.82,3,1,5,0.00
2013-8-7,92.6,82.0,74.8,79.8,76.5,74.2,99,85,60,29.92,29.85,3,1,6,0.00
2013-8-8,97.5,81.2,73.2,80.8,76.0,72.9,99,86,56,29.98,29.87,5,1,7,0.08
2013-8-9,99.3,81.8,72.1,79.5,75.7,71.8,99,84,48,30.01,29.90,5,1,7,0.07
2013-8-10,100.4,81.6,70.9,82.7,75.0,70.6,99,84,43,30.07,29.97,5,1,6,0.24
2013-8-11,104.3,83.7,73.2,79.1,75.5,72.9,99,80,39,30.09,29.97,3,1,6,0.01
2013-8-12,101.3,82.5,73.2,80.9,75.9,72.9,99,83,45,30.06,29.92,9,1,15,0.93
2013-8-13,105.6,83.6,72.9,78.9,74.9,70.1,99,79,35,29.96,29.82,3,1,7,0.01
2013-8-14,99.9,81.8,73.2,80.7,75.3,71.9,99,83,44,29.92,29.78,5,1,7,0.56
2013-8-15,98.9,79.5,72.5,78.1,74.1,72.2,99,86,46,29.95,29.82,5,1,7,0.07
2013-8-16,92.9,78.2,71.4,78.0,74.5,71.1,99,89,59,29.98,29.87,3,1,7,0.07
2013-8-17,94.6,80.0,73.8,79.9,75.6,73.2,99,88,61,30.04,29.92,6,1,8,0.60
2013-8-18,92.6,80.1,72.5,81.0,76.0,72.2,99,89,62,30.04,29.95,3,0,5,0.01
2013-8-19,99.3,82.4,73.8,80.0,75.9,71.9,99,83,50,30.02,29.89,3,1,6,0.00
2013-8-20,97.3,81.6,71.4,78.9,74.6,70.7,99,81,51,30.05,29.93,3,1,7,0.00
2013-8-21,95.6,80.1,71.6,80.5,76.0,71.3,99,88,57,30.08,30.00,3,0,7,0.05
2013-8-22,85.1,76.7,72.3,78.4,74.9,72.0,99,94,79,30.09,29.94,3,0,6,1.44
2013-8-23,89.7,76.2,72.0,79.7,74.0,71.7,99,94,69,29.97,29.91,3,0,6,0.27
2013-8-24,89.4,78.4,72.0,79.9,75.3,71.7,99,91,70,30.06,29.94,2,0,5,0.17
2013-8-25,84.2,76.4,71.1,77.8,73.9,70.0,99,92,76,30.12,30.04,5,1,9,0.22
2013-8-26,93.2,78.0,70.2,77.3,72.8,69.7,99,85,56,30.11,29.99,5,1,8,0.00
2013-8-27,93.6,78.4,70.7,75.7,71.5,68.6,99,81,48,30.03,29.93,3,1,6,0.00
2013-8-28,101.5,79.4,66.6,74.1,69.7,65.7,98,76,37,29.98,29.88,5,1,5,0.00
2013-8-29,100.8,81.3,68.9,75.6,70.3,66.7,98,73,36,29.94,29.83,6,1,9,0.00
2013-8-30,103.3,82.1,71.6,78.0,73.5,70.2,99,78,39,29.89,29.78,5,1,6,0.01
2013-8-31,95.5,77.5,70.2,79.3,73.3,69.7,99,89,54,29.88,29.79,6,1,10,0.35
2013-9-1,97.1,80.8,71.1,79.1,74.1,70.5,99,83,51,29.90,29.80,5,1,6,0.02
2013-9-2,96.3,79.7,70.5,79.3,73.8,69.9,99,84,52,29.91,29.80,5,1,8,0.02
2013-9-3,97.9,81.0,72.0,78.5,74.7,71.7,99,83,53,29.91,29.82,5,1,9,0.01
2013-9-4,101.0,82.2,71.6,78.0,73.5,69.9,99,78,41,30.00,29.89,6,1,8,0.00
2013-9-5,100.6,81.7,71.2,77.9,73.9,70.6,99,80,44,30.02,29.92,3,1,6,0.17
2013-9-6,95.6,76.7,70.9,79.4,73.7,70.6,99,92,54,30.02,29.90,7,0,10,0.55
2013-9-7,93.0,77.7,67.6,76.2,70.9,67.3,99,82,50,29.96,29.87,5,1,7,0.01
2013-9-8,95.0,77.6,66.2,74.9,68.9,65.9,99,78,43,29.91,29.83,5,1,6,0.00
2013-9-9,93.6,77.4,66.6,74.6,69.3,66.0,99,79,44,29.99,29.88,5,1,7,0.00
2013-9-10,93.0,78.3,67.6,75.0,70.0,67.3,99,79,47,30.06,29.96,5,1,9,0.00
2013-9-11,93.8,78.4,68.5,77.2,72.0,68.2,99,83,52,30.04,29.95,5,1,8,0.00
2013-9-12,95.4,77.9,68.5,79.9,72.5,68.2,99,85,48,29.98,29.81,3,0,6,0.04
2013-9-13,97.6,80.2,68.5,76.9,71.1,65.7,99,78,38,29.84,29.70,3,1,6,0.00
2013-9-14,97.3,80.5,68.7,75.7,71.7,67.6,99,78,40,29.91,29.74,5,1,8,0.00
2013-9-15,94.7,81.1,71.2,78.9,74.2,70.9,99,82,52,30.02,29.90,3,1,6,0.04
2013-9-16,96.4,80.5,71.2,78.2,74.2,70.9,99,83,53,30.01,29.92,3,0,5,0.00
2013-9-17,90.4,77.5,69.1,78.4,73.3,68.8,99,88,60,30.02,29.92,5,1,9,0.34
2013-9-18,84.1,74.9,69.6,77.6,72.7,68.2,99,93,73,30.03,29.95,6,1,10,0.38
2013-9-19,92.1,75.9,69.4,76.9,72.1,68.4,99,89,58,30.00,29.94,5,1,6,0.24
2013-9-20,92.1,75.9,65.8,73.5,69.5,65.5,99,83,52,29.97,29.85,3,1,6,0.00
2013-9-21,95.7,77.2,64.4,75.4,70.0,64.1,99,81,46,29.87,29.67,3,0,7,0.00
2013-9-22,85.0,75.5,71.4,77.0,73.2,71.1,99,93,73,29.76,29.65,7,1,11,0.41
2013-9-23,84.9,76.2,71.2,77.8,74.1,70.9,99,94,78,29.88,29.75,2,0,5,0.07
2013-9-24,84.5,76.6,73.6,78.6,74.9,72.7,99,95,77,29.87,29.74,3,0,5,0.33
2013-9-25,89.5,77.4,73.0,77.9,74.4,72.7,99,91,67,29.75,29.66,5,1,8,0.01
2013-9-26,81.4,74.6,68.7,77.3,72.1,67.5,99,92,78,29.83,29.66,5,1,8,0.00
2013-9-27,84.3,72.8,64.9,73.0,68.2,64.2,99,86,66,29.93,29.80,5,1,8,0.00
2013-9-28,80.3,72.9,67.8,71.1,68.7,65.6,99,88,68,30.00,29.89,5,1,8,0.08
2013-9-29,86.3,72.8,65.1,72.5,67.7,64.8,99,85,60,29.95,29.86,5,1,9,0.00
2013-9-30,84.8,72.6,64.8,72.0,66.8,64.5,99,84,58,29.96,29.86,5,1,7,0.00
2013-10-1,86.4,73.3,63.6,70.1,66.3,62.1,96,80,55,30.02,29.93,3,1,7,0.00
2013-10-2,88.5,71.3,59.2,69.2,64.6,58.9,99,82,52,30.02,29.96,5,1,9,0.00
2013-10-3,90.8,74.3,62.8,75.2,69.5,62.5,99,87,59,30.02,29.93,6,1,6,0.00
2013-10-4,93.9,77.3,65.7,76.8,71.1,65.4,99,84,50,30.03,29.94,3,0,5,0.00
2013-10-5,92.4,75.7,64.4,76.9,70.6,64.1,99,86,57,30.00,29.91,3,1,7,0.00
2013-10-6,93.8,76.0,65.8,77.7,72.0,65.5,99,89,55,29.92,29.78,3,0,6,0.06
2013-10-7,90.0,76.4,68.5,76.8,73.0,68.2,99,90,61,29.79,29.67,3,0,6,0.00
2013-10-8,83.5,73.1,66.0,75.8,71.6,64.2,99,95,76,29.93,29.70,5,2,12,0.20
2013-10-9,80.3,64.9,59.7,65.7,62.3,59.4,99,92,60,30.02,29.92,3,1,6,0.02
2013-10-10,90.0,69.0,57.4,66.3,61.2,57.1,99,80,40,30.00,29.90,5,1,6,0.00
2013-10-11,89.8,69.4,56.5,67.9,60.7,56.2,99,78,40,29.97,29.86,5,1,8,0.00
2013-10-12,90.9,71.6,60.3,66.4,62.1,58.9,99,77,37,29.97,29.88,6,1,7,0.00
2013-10-13,88.4,70.6,56.1,68.9,62.2,55.8,99,79,40,30.02,29.93,5,1,6,0.00
2013-10-14,81.7,70.1,62.1,69.9,66.0,61.8,99,88,65,30.00,29.92,5,1,13,0.00
2013-10-15,74.2,69.3,67.3,69.1,67.1,65.8,97,93,83,29.95,29.86,6,2,10,0.00
2013-10-16,89.3,72.7,62.8,71.6,67.4,62.5,99,85,55,29.91,29.84,3,1,6,0.00
2013-10-17,90.9,73.7,60.8,72.9,67.1,60.5,99,83,49,29.90,29.81,3,0,6,0.00
2013-10-18,95.5,75.6,63.7,74.4,69.2,63.4,99,83,45,29.91,29.81,6,0,7,0.00
2013-10-19,90.7,76.6,67.5,76.4,71.6,67.2,99,86,59,29.87,29.77,3,1,6,0.00
2013-10-20,83.8,72.6,65.3,70.6,65.9,62.3,99,81,57,29.92,29.81,3,1,8,0.02
2013-10-21,87.9,73.5,64.0,75.4,69.7,63.1,99,89,68,29.94,29.86,5,1,8,0.00
2013-10-22,85.3,73.9,68.5,76.5,72.1,68.2,99,94,73,29.89,29.74,3,0,6,0.25
2013-10-23,78.5,65.7,48.9,70.4,58.2,47.8,99,81,40,29.96,29.73,8,2,12,0.04
2013-10-24,75.0,58.3,48.4,53.9,46.0,38.9,98,68,34,30.11,29.96,5,1,7,0.00
2013-10-25,76.5,57.7,43.7,54.2,48.4,43.4,99,75,42,30.19,30.09,6,1,8,0.00
2013-10-26,76.1,57.0,41.7,55.3,49.2,41.4,99,79,44,30.18,30.04,3,1,7,0.00
2013-10-27,77.7,56.9,40.1,55.4,46.4,39.8,99,75,30,30.10,30.00,3,0,6,0.00
2013-10-28,81.6,61.2,45.0,61.7,53.9,44.7,99,80,45,30.15,30.04,5,1,7,0.00
2013-10-29,81.0,64.0,50.4,67.0,58.1,50.1,99,84,54,30.20,30.12,5,1,7,0.00
2013-10-30,82.3,65.8,53.1,68.6,60.7,52.8,99,85,60,30.19,30.08,5,1,7,0.01
2013-10-31,86.1,70.6,59.0,72.4,65.1,58.7,99,85,53,30.09,29.90,5,0,7,0.06
2013-11-1,85.0,73.8,64.9,72.3,68.9,64.6,99,86,62,29.92,29.74,6,2,10,0.00
2013-11-2,75.1,66.8,51.6,72.8,63.6,50.8,99,90,56,29.89,29.69,5,1,7,1.87
2013-11-3,72.9,57.0,46.0,51.9,48.6,45.7,99,77,43,30.12,29.88,6,1,10,0.00
2013-11-4,74.6,61.3,50.4,62.6,56.4,47.3,99,85,66,30.19,30.10,10,2,15,0.10
2013-11-5,71.6,64.6,59.4,65.2,62.9,58.5,99,95,80,30.19,30.10,7,3,12,0.01
2013-11-6,80.4,70.0,64.8,70.1,66.8,64.5,99,90,66,30.11,30.00,3,1,7,0.01
2013-11-7,84.6,70.9,64.9,69.1,66.3,63.3,98,87,56,30.00,29.89,3,1,6,0.00
2013-11-8,69.0,58.6,47.5,63.9,50.0,43.3,94,74,58,30.13,29.94,7,2,12,0.00
2013-11-9,80.1,61.1,48.4,63.3,55.8,47.6,99,85,53,30.17,30.08,5,1,7,0.00
2013-11-10,80.0,63.7,52.9,64.6,59.1,52.2,99,87,55,30.16,30.04,3,1,7,0.00
2013-11-11,81.5,62.4,48.9,64.2,57.2,48.6,99,85,55,30.12,30.03,3,1,6,0.00
2013-11-12,78.3,65.4,56.3,65.5,59.7,48.2,99,84,49,30.07,29.94,6,1,10,0.00
2013-11-13,59.0,48.1,38.5,48.1,38.4,30.9,80,69,56,30.36,30.08,8,3,16,0.00
2013-11-14,69.6,52.3,38.2,57.5,46.9,31.5,99,83,66,30.32,30.15,5,1,9,0.00
2013-11-15,66.9,60.3,52.0,64.5,59.4,51.7,99,97,86,30.16,29.98,3,0,6,0.09
2013-11-16,77.6,66.3,56.5,68.9,63.3,56.2,99,91,71,30.11,30.00,3,0,7,0.00
2013-11-17,84.2,72.0,65.7,73.9,68.9,64.5,99,91,68,30.02,29.91,3,0,6,0.07
2013-11-18,81.0,71.0,65.1,75.2,69.8,64.8,99,96,79,29.94,29.81,5,1,7,0.40
2013-11-19,70.6,61.5,53.8,69.7,54.7,43.9,99,79,66,29.97,29.83,5,2,12,0.00
2013-11-20,72.1,61.6,53.6,65.6,59.3,52.4,99,92,79,30.11,29.95,6,2,11,0.04
2013-11-21,78.0,66.6,61.9,69.3,63.9,61.6,99,92,74,30.17,30.08,5,2,10,0.01
2013-11-22,82.4,68.5,59.4,71.0,65.2,58.2,99,90,64,30.17,30.05,3,0,6,0.00
2013-11-23,85.3,66.9,54.5,68.5,62.0,54.2,99,86,52,30.06,29.93,5,1,7,0.00
2013-11-24,63.5,58.0,49.6,60.2,48.8,39.6,90,72,53,30.24,30.00,8,3,14,0.00